createdAt,value
2018-11-05T00:00:50.262Z,20.87
2018-11-05T00:04:23.510Z,19.67
2018-11-05T00:07:56.777Z,19.70
2018-11-05T00:11:30.010Z,19.93
2018-11-05T00:15:03.261Z,20.00
2018-11-05T00:18:36.517Z,20.03
2018-11-05T00:22:09.745Z,19.13
2018-11-05T00:25:43.024Z,21.70
2018-11-05T00:29:16.291Z,20.53
2018-11-05T00:32:49.529Z,21.67
2018-11-05T00:36:22.867Z,20.40
2018-11-05T00:39:56.117Z,20.07
2018-11-05T00:43:29.362Z,21.43
2018-11-05T00:47:02.781Z,21.27
2018-11-05T00:50:36.008Z,21.73
2018-11-05T00:54:09.295Z,22.30
2018-11-05T00:57:42.547Z,22.80
2018-11-05T01:01:15.778Z,22.77
2018-11-05T01:04:49.023Z,21.53
2018-11-05T01:08:22.262Z,21.77
2018-11-05T01:11:55.500Z,23.30
2018-11-05T01:15:34.785Z,22.80
2018-11-05T01:19:08.027Z,23.57
2018-11-05T01:22:41.266Z,22.30
2018-11-05T01:26:14.501Z,23.37
2018-11-05T01:29:47.757Z,23.83
2018-11-05T01:33:21.014Z,21.97
2018-11-05T01:36:54.265Z,23.70
2018-11-05T01:40:27.522Z,22.03
2018-11-05T01:44:00.769Z,25.07
2018-11-05T01:47:34.005Z,23.70
2018-11-05T01:51:07.273Z,24.63
2018-11-05T01:54:40.504Z,24.60
2018-11-05T01:58:13.748Z,26.13
2018-11-05T02:01:46.993Z,24.17
2018-11-05T02:05:20.232Z,25.10
2018-11-05T02:08:53.474Z,25.03
2018-11-05T02:12:26.721Z,24.17
2018-11-05T02:15:59.981Z,25.63
2018-11-05T02:19:33.303Z,27.77
2018-11-05T02:23:06.536Z,26.53
2018-11-05T02:26:39.796Z,26.13
2018-11-05T02:30:15.406Z,27.60
2018-11-05T02:33:48.652Z,25.47
2018-11-05T02:37:22.317Z,25.77
2018-11-05T02:40:55.566Z,25.60
2018-11-05T02:44:28.797Z,24.00
2018-11-05T02:48:02.037Z,24.70
2018-11-05T02:51:35.283Z,26.20
2018-11-05T02:55:09.019Z,24.67
2018-11-05T02:58:42.260Z,25.00
2018-11-05T03:02:15.512Z,27.83
2018-11-05T03:05:48.757Z,26.77
2018-11-05T03:09:22.005Z,26.20
2018-11-05T03:12:55.245Z,27.87
2018-11-05T03:16:28.499Z,25.03
2018-11-05T03:20:01.746Z,25.13
2018-11-05T03:23:34.981Z,22.87
2018-11-05T03:27:08.223Z,24.70
2018-11-05T03:30:41.493Z,22.80
2018-11-05T03:34:14.730Z,24.20
2018-11-05T03:37:47.962Z,23.07
2018-11-05T03:41:21.280Z,23.67
2018-11-05T03:44:54.529Z,21.93
2018-11-05T03:48:27.750Z,24.00
2018-11-05T03:52:00.987Z,23.20
2018-11-05T03:55:34.282Z,24.40
2018-11-05T03:59:07.485Z,23.20
2018-11-05T04:02:40.709Z,25.27
2018-11-05T04:06:13.991Z,25.80
2018-11-05T04:09:47.238Z,25.40
2018-11-05T04:13:20.486Z,24.50
2018-11-05T04:16:53.734Z,24.73
2018-11-05T04:20:26.969Z,23.67
2018-11-05T04:24:00.219Z,24.77
2018-11-05T04:27:33.501Z,25.53
2018-11-05T04:31:06.736Z,25.03
2018-11-05T04:34:39.988Z,24.57
2018-11-05T04:38:13.229Z,23.37
2018-11-05T04:41:46.455Z,22.30
2018-11-05T04:45:19.707Z,25.20
2018-11-05T04:48:52.965Z,24.30
2018-11-05T04:52:26.225Z,24.10
2018-11-05T04:55:59.470Z,23.57
2018-11-05T04:59:32.756Z,25.30
2018-11-05T05:03:06.053Z,26.27
2018-11-05T05:06:39.256Z,24.87
2018-11-05T05:10:12.513Z,23.07
2018-11-05T05:13:45.754Z,22.97
2018-11-05T05:17:18.990Z,24.63
2018-11-05T05:20:52.237Z,25.50
2018-11-05T05:24:25.478Z,25.03
2018-11-05T05:27:58.733Z,22.73
2018-11-05T05:31:31.985Z,23.40
2018-11-05T05:35:05.597Z,23.03
2018-11-05T05:38:38.992Z,22.23
2018-11-05T05:42:12.241Z,22.07
2018-11-05T05:45:45.525Z,23.73
2018-11-05T05:49:18.777Z,23.40
2018-11-05T05:52:52.030Z,25.40
2018-11-05T05:56:25.268Z,23.23
2018-11-05T05:59:58.655Z,21.27
2018-11-05T06:03:31.773Z,23.83
2018-11-05T06:07:05.218Z,23.57
2018-11-05T06:10:38.458Z,22.60
2018-11-05T06:14:11.701Z,24.20
2018-11-05T06:17:44.965Z,21.70
2018-11-05T06:21:18.272Z,23.10
2018-11-05T06:24:51.793Z,28.27
2018-11-05T06:28:25.073Z,23.80
2018-11-05T06:31:58.343Z,27.80
2018-11-05T06:35:31.837Z,23.97
2018-11-05T06:39:08.529Z,22.57
2018-11-05T06:42:42.441Z,22.70
2018-11-05T06:46:15.789Z,24.80
2018-11-05T06:49:49.037Z,22.70
2018-11-05T06:53:22.370Z,24.40
2018-11-05T06:56:55.629Z,24.17
2018-11-05T07:00:28.857Z,23.23
2018-11-05T07:04:02.140Z,23.90
2018-11-05T07:07:35.647Z,23.07
2018-11-05T07:11:08.968Z,22.20
2018-11-05T07:14:42.156Z,22.10
2018-11-05T07:18:15.620Z,22.10
2018-11-05T07:21:48.818Z,18.67
2018-11-05T07:25:22.117Z,23.00
2018-11-05T07:28:55.435Z,19.87
2018-11-05T07:32:28.706Z,20.90
2018-11-05T07:36:01.978Z,21.67
2018-11-05T07:39:35.223Z,21.90
2018-11-05T07:43:08.512Z,21.33
2018-11-05T07:46:41.756Z,23.00
2018-11-05T07:50:16.056Z,21.80
2018-11-05T07:53:49.264Z,19.73
2018-11-05T07:57:22.556Z,18.63
2018-11-05T08:00:56.708Z,18.40
2018-11-05T08:04:29.944Z,19.33
2018-11-05T08:08:03.177Z,19.50
2018-11-05T08:11:36.433Z,19.00
2018-11-05T08:15:12.684Z,17.53
2018-11-05T08:18:45.943Z,21.93
2018-11-05T08:22:19.199Z,22.57
2018-11-05T08:25:52.456Z,20.13
2018-11-05T08:29:25.706Z,16.93
2018-11-05T08:32:58.969Z,17.67
2018-11-05T08:36:32.230Z,17.87
2018-11-05T08:40:08.693Z,17.80
2018-11-05T08:43:41.881Z,18.30
2018-11-05T08:47:15.126Z,15.70
2018-11-05T08:50:48.447Z,17.77
2018-11-05T08:54:21.650Z,18.00
2018-11-05T08:57:54.890Z,17.40
2018-11-05T09:01:32.195Z,18.00
2018-11-05T09:05:05.746Z,16.17
2018-11-05T09:08:38.992Z,13.67
2018-11-05T09:12:12.362Z,14.80
2018-11-05T09:15:45.509Z,12.77
2018-11-05T09:19:18.777Z,15.57
2018-11-05T09:22:52.553Z,13.37
2018-11-05T09:26:25.813Z,13.63
2018-11-05T09:29:59.078Z,15.20
2018-11-05T09:33:32.315Z,13.67
2018-11-05T09:37:05.589Z,14.40
2018-11-05T09:40:38.849Z,12.83
2018-11-05T09:44:12.107Z,16.87
2018-11-05T09:47:46.060Z,12.70
2018-11-05T09:51:19.302Z,13.07
2018-11-05T09:54:52.630Z,13.30
2018-11-05T09:58:25.993Z,11.93
2018-11-05T10:01:59.239Z,11.77
2018-11-05T10:05:32.548Z,11.30
2018-11-05T10:09:08.428Z,14.30
2018-11-05T10:12:42.050Z,10.90
2018-11-05T10:16:15.301Z,11.30
2018-11-05T10:19:48.655Z,14.50
2018-11-05T10:23:21.907Z,12.00
2018-11-05T10:26:55.165Z,11.60
2018-11-05T10:30:28.425Z,12.33
2018-11-05T10:34:01.684Z,11.90
2018-11-05T10:37:34.921Z,11.70
2018-11-05T10:41:08.167Z,12.67
2018-11-05T10:44:41.410Z,11.03
2018-11-05T10:48:14.668Z,11.10
2018-11-05T10:51:47.963Z,12.50
2018-11-05T10:55:21.206Z,11.93
2018-11-05T10:58:54.491Z,11.20
2018-11-05T11:02:33.246Z,11.73
2018-11-05T11:06:07.817Z,10.53
2018-11-05T11:09:41.187Z,11.50
2018-11-05T11:13:14.359Z,10.90
2018-11-05T11:16:47.584Z,11.50
2018-11-05T11:20:20.877Z,10.63
2018-11-05T11:23:54.133Z,12.87
2018-11-05T11:27:27.385Z,11.43
2018-11-05T11:31:00.632Z,11.27
2018-11-05T11:34:33.877Z,11.20
2018-11-05T11:38:07.134Z,11.20
2018-11-05T11:41:40.626Z,10.90
2018-11-05T11:45:14.581Z,11.70
2018-11-05T11:48:47.830Z,11.70
2018-11-05T11:52:21.081Z,11.97
2018-11-05T11:55:54.318Z,12.20
2018-11-05T11:59:27.621Z,11.20
2018-11-05T12:03:00.898Z,12.00
2018-11-05T12:06:34.157Z,10.73
2018-11-05T12:10:09.990Z,11.00
2018-11-05T12:13:43.244Z,11.40
2018-11-05T12:17:16.515Z,10.40
2018-11-05T12:20:49.753Z,9.50
2018-11-05T12:24:23.076Z,11.00
2018-11-05T12:27:56.276Z,10.90
2018-11-05T12:31:29.547Z,9.83
2018-11-05T12:35:02.802Z,11.73
2018-11-05T12:38:36.207Z,9.60
2018-11-05T12:42:09.441Z,9.77
2018-11-05T12:45:42.872Z,9.17
2018-11-05T12:49:16.122Z,8.83
2018-11-05T12:52:50.228Z,9.77
2018-11-05T12:56:23.501Z,7.63
2018-11-05T12:59:56.745Z,10.00
2018-11-05T13:03:29.981Z,9.37
2018-11-05T13:07:03.267Z,9.10
2018-11-05T13:10:36.507Z,9.40
2018-11-05T13:14:09.740Z,8.70
2018-11-05T13:17:43.001Z,8.40
2018-11-05T13:21:16.241Z,8.50
2018-11-05T13:24:49.488Z,8.57
2018-11-05T13:28:22.806Z,8.10
2018-11-05T13:31:55.999Z,7.43
2018-11-05T13:35:29.258Z,8.13
2018-11-05T13:39:02.507Z,8.70
2018-11-05T13:42:35.745Z,9.57
2018-11-05T13:46:09.249Z,8.77
2018-11-05T13:49:42.358Z,8.23
2018-11-05T13:53:15.501Z,8.77
2018-11-05T13:56:48.752Z,10.63
2018-11-05T14:00:21.989Z,8.60
2018-11-05T14:03:55.241Z,10.23
2018-11-05T14:07:28.468Z,7.43
2018-11-05T14:11:01.831Z,9.80
2018-11-05T14:14:35.054Z,9.03
2018-11-05T14:18:08.369Z,8.53
2018-11-05T14:21:41.573Z,8.13
2018-11-05T14:25:16.813Z,8.50
2018-11-05T14:28:50.472Z,10.90
2018-11-05T14:32:23.272Z,10.67
2018-11-05T14:35:56.537Z,9.30
2018-11-05T14:39:29.777Z,9.50
2018-11-05T14:43:03.110Z,7.73
2018-11-05T14:46:36.289Z,8.87
2018-11-05T14:50:11.329Z,9.53
2018-11-05T14:53:44.576Z,8.90
2018-11-05T14:57:17.871Z,9.30
2018-11-05T15:00:51.118Z,10.30
2018-11-05T15:04:24.360Z,9.10
2018-11-05T15:07:57.615Z,8.23
2018-11-05T15:11:30.866Z,9.00
2018-11-05T15:15:04.201Z,8.90
2018-11-05T15:18:37.598Z,9.50
2018-11-05T15:22:10.768Z,9.27
2018-11-05T15:25:44.064Z,9.90
2018-11-05T15:29:17.277Z,9.90
2018-11-05T15:32:50.645Z,12.20
2018-11-05T15:36:23.878Z,12.00
2018-11-05T15:39:57.157Z,10.60
2018-11-05T15:43:30.409Z,10.00
2018-11-05T15:47:03.705Z,9.93
2018-11-05T15:50:36.989Z,11.57
2018-11-05T15:54:10.242Z,11.00
2018-11-05T15:57:43.509Z,11.10
2018-11-05T16:01:16.732Z,11.20
2018-11-05T16:04:49.992Z,12.37
2018-11-05T16:08:23.257Z,13.87
2018-11-05T16:11:56.500Z,12.70
2018-11-05T16:15:29.761Z,12.63
2018-11-05T16:19:03.002Z,11.80
2018-11-05T16:22:37.118Z,12.67
2018-11-05T16:26:10.672Z,11.83
2018-11-05T16:29:44.648Z,11.70
2018-11-05T16:33:18.615Z,12.43
2018-11-05T16:36:51.923Z,12.40
2018-11-05T16:40:25.184Z,12.40
2018-11-05T16:43:58.421Z,12.07
2018-11-05T16:47:31.665Z,11.10
2018-11-05T16:51:05.188Z,12.53
2018-11-05T16:54:38.464Z,12.47
2018-11-05T16:58:11.809Z,11.70
2018-11-05T17:01:45.363Z,12.77
2018-11-05T17:05:18.275Z,11.13
2018-11-05T17:08:51.519Z,12.80
2018-11-05T17:12:24.758Z,12.53
2018-11-05T17:15:58.009Z,13.30
2018-11-05T17:19:31.796Z,14.90
2018-11-05T17:23:05.090Z,14.50
2018-11-05T17:26:38.339Z,12.87
2018-11-05T17:30:14.382Z,13.00
2018-11-05T17:33:47.778Z,14.67
2018-11-05T17:37:20.905Z,16.10
2018-11-05T17:40:54.157Z,15.50
2018-11-05T17:44:27.401Z,16.10
2018-11-05T17:48:00.644Z,15.27
2018-11-05T17:51:33.896Z,17.10
2018-11-05T17:55:07.773Z,15.80
2018-11-05T17:58:41.021Z,15.47
2018-11-05T18:02:18.473Z,13.60
2018-11-05T18:05:51.713Z,16.33
2018-11-05T18:09:25.052Z,18.77
2018-11-05T18:12:58.213Z,19.37
2018-11-05T18:16:31.455Z,18.23
2018-11-05T18:20:05.167Z,18.87
2018-11-05T18:23:38.509Z,19.23
2018-11-05T18:27:11.764Z,23.20
2018-11-05T18:30:45.061Z,19.03
2018-11-05T18:34:18.369Z,18.70
2018-11-05T18:37:52.281Z,19.33
2018-11-05T18:41:25.520Z,20.10
2018-11-05T18:44:58.765Z,18.57
2018-11-05T18:48:32.012Z,18.97
2018-11-05T18:52:06.204Z,19.60
2018-11-05T18:55:39.440Z,20.87
2018-11-05T18:59:12.684Z,19.90
2018-11-05T19:02:46.004Z,21.50
2018-11-05T19:06:19.184Z,20.90
2018-11-05T19:09:52.453Z,20.27
2018-11-05T19:13:25.697Z,22.90
2018-11-05T19:16:59.037Z,27.00
2018-11-05T19:20:32.296Z,24.60
2018-11-05T19:24:05.888Z,25.47
2018-11-05T19:27:39.511Z,27.43
2018-11-05T19:31:12.769Z,24.10
2018-11-05T19:34:46.820Z,29.30
2018-11-05T19:38:20.057Z,28.17
2018-11-05T19:41:53.379Z,27.00
2018-11-05T19:45:26.565Z,28.50
2018-11-05T19:48:59.809Z,26.67
2018-11-05T19:52:33.052Z,25.17
2018-11-05T19:56:06.909Z,24.33
2018-11-05T19:59:40.101Z,23.07
2018-11-05T20:03:13.333Z,22.23
2018-11-05T20:06:46.600Z,24.20
2018-11-05T20:10:19.885Z,24.53
2018-11-05T20:13:53.584Z,21.73
2018-11-05T20:17:26.819Z,22.83
2018-11-05T20:21:00.071Z,20.73
2018-11-05T20:24:33.312Z,21.20
2018-11-05T20:28:06.568Z,21.93
2018-11-05T20:31:40.112Z,18.37
2018-11-05T20:35:13.370Z,19.93
2018-11-05T20:38:46.629Z,18.93
2018-11-05T20:42:19.877Z,20.57
2018-11-05T20:45:53.176Z,21.07
2018-11-05T20:49:26.603Z,20.97
2018-11-05T20:52:59.959Z,21.83
2018-11-05T20:56:33.577Z,21.17
2018-11-05T21:00:08.409Z,20.50
2018-11-05T21:03:41.762Z,22.30
2018-11-05T21:07:15.061Z,22.60
2018-11-05T21:10:48.301Z,22.20
2018-11-05T21:14:21.621Z,22.83
2018-11-05T21:17:54.981Z,26.10
2018-11-05T21:21:28.271Z,25.50
2018-11-05T21:25:01.616Z,26.90
2018-11-05T21:28:34.904Z,27.20
2018-11-05T21:32:08.317Z,26.13
2018-11-05T21:35:41.581Z,24.83
2018-11-05T21:39:14.841Z,24.30
2018-11-05T21:42:48.077Z,23.40
2018-11-05T21:46:21.340Z,25.07
2018-11-05T21:49:54.577Z,23.93
2018-11-05T21:53:27.931Z,26.40
2018-11-05T21:57:01.198Z,24.47
2018-11-05T22:00:34.441Z,22.53
2018-11-05T22:04:07.703Z,21.10
2018-11-05T22:07:41.025Z,24.30
2018-11-05T22:11:14.264Z,22.27
2018-11-05T22:14:47.505Z,22.17
2018-11-05T22:18:20.749Z,24.60
2018-11-05T22:21:53.981Z,26.80
2018-11-05T22:25:27.218Z,33.20
2018-11-05T22:29:00.460Z,32.00
2018-11-05T22:32:33.702Z,27.50
2018-11-05T22:36:06.957Z,23.93
2018-11-05T22:39:40.196Z,26.20
2018-11-05T22:43:13.451Z,24.10
2018-11-05T22:46:46.751Z,26.70
2018-11-05T22:50:19.954Z,22.97
2018-11-05T22:53:53.212Z,23.80
2018-11-05T22:57:26.458Z,25.17
2018-11-05T23:01:05.800Z,28.03
2018-11-05T23:04:39.032Z,27.47
2018-11-05T23:08:12.264Z,23.80
2018-11-05T23:11:46.231Z,24.93
2018-11-05T23:15:20.129Z,28.43
2018-11-05T23:18:53.383Z,23.23
2018-11-05T23:22:26.608Z,24.13
2018-11-05T23:25:59.864Z,23.10
2018-11-05T23:29:33.118Z,24.10
2018-11-05T23:33:06.382Z,22.30
2018-11-05T23:36:39.625Z,21.63
2018-11-05T23:40:12.861Z,22.73
2018-11-05T23:43:46.121Z,25.43
2018-11-05T23:47:19.365Z,20.67
2018-11-05T23:50:52.618Z,23.07
2018-11-05T23:54:25.864Z,22.20
2018-11-05T23:57:59.094Z,21.40
